地図

経路データ

SID SEASON NUMBER BASIN SUBBASIN NAME ISO_TIME NATURE LAT LON WMO_WIND WMO_PRES WMO_AGENCY TRACK_TYPE DIST2LAND LANDFALL IFLAG USA_AGENCY USA_ATCF_ID USA_LAT USA_LON USA_RECORD USA_STATUS USA_WIND USA_PRES USA_SSHS USA_R34_NE USA_R34_SE USA_R34_SW USA_R34_NW USA_R50_NE USA_R50_SE USA_R50_SW USA_R50_NW USA_R64_NE USA_R64_SE USA_R64_SW USA_R64_NW USA_POCI USA_ROCI USA_RMW USA_EYE TOKYO_LAT TOKYO_LON TOKYO_GRADE TOKYO_WIND TOKYO_PRES TOKYO_R50_DIR TOKYO_R50_LONG TOKYO_R50_SHORT TOKYO_R30_DIR TOKYO_R30_LONG TOKYO_R30_SHORT TOKYO_LAND CMA_LAT CMA_LON CMA_CAT CMA_WIND CMA_PRES HKO_LAT HKO_LON HKO_CAT HKO_WIND HKO_PRES NEWDELHI_LAT NEWDELHI_LON NEWDELHI_GRADE NEWDELHI_WIND NEWDELHI_PRES NEWDELHI_CI NEWDELHI_DP NEWDELHI_POCI REUNION_LAT REUNION_LON REUNION_TYPE REUNION_WIND REUNION_PRES REUNION_TNUM REUNION_CI REUNION_RMW REUNION_R34_NE REUNION_R34_SE REUNION_R34_SW REUNION_R34_NW REUNION_R50_NE REUNION_R50_SE REUNION_R50_SW REUNION_R50_NW REUNION_R64_NE REUNION_R64_SE REUNION_R64_SW REUNION_R64_NW BOM_LAT BOM_LON BOM_TYPE BOM_WIND BOM_PRES BOM_TNUM BOM_CI BOM_RMW BOM_R34_NE BOM_R34_SE BOM_R34_SW BOM_R34_NW BOM_R50_NE BOM_R50_SE BOM_R50_SW BOM_R50_NW BOM_R64_NE BOM_R64_SE BOM_R64_SW BOM_R64_NW BOM_ROCI BOM_POCI BOM_EYE BOM_POS_METHOD BOM_PRES_METHOD NADI_LAT NADI_LON NADI_CAT NADI_WIND NADI_PRES WELLINGTON_LAT WELLINGTON_LON WELLINGTON_WIND WELLINGTON_PRES DS824_LAT DS824_LON DS824_STAGE DS824_WIND DS824_PRES TD9636_LAT TD9636_LON TD9636_STAGE TD9636_WIND TD9636_PRES TD9635_LAT TD9635_LON TD9635_WIND TD9635_PRES TD9635_ROCI NEUMANN_LAT NEUMANN_LON NEUMANN_CLASS NEUMANN_WIND NEUMANN_PRES MLC_LAT MLC_LON MLC_CLASS MLC_WIND MLC_PRES USA_GUST BOM_GUST BOM_GUST_PER REUNION_GUST REUNION_GUST_PER USA_SEAHGT USA_SEARAD_NE USA_SEARAD_SE USA_SEARAD_SW USA_SEARAD_NW STORM_SPEED STORM_DIR
1962358S17151 1963 113 SP EA NOT_NAMED 1962-12-23 17:00:00 NR -16.5000 150.500 main 455 455 __________O___ -1 -16.5000 150.500 1 10 0 0
1962358S17151 1963 113 SP EA NOT_NAMED 1962-12-23 18:00:00 TS -16.5072 150.499 main 455 445 O_________P___ jtwc_sh SH081963 -16.5000 150.500 10 -1 -16.5144 150.497 1 10 1 190
1962358S17151 1963 113 SP EA NOT_NAMED 1962-12-23 21:00:00 TS -16.5550 150.483 main 445 445 P_________P___ SH081963 -16.5525 150.470 12 -1 -16.5584 150.501 1 11 1 169
1962358S17151 1963 113 SP EA NOT_NAMED 1962-12-24 00:00:00 TS -16.6024 150.519 main 445 445 O_________P___ jtwc_sh SH081963 -16.6000 150.500 15 -1 -16.6060 150.547 1 12 1 124
1962358S17151 1963 113 SP EA NOT_NAMED 1962-12-24 02:00:00 TS -16.6220 150.585 1005 bom main 451 451 P_____O___P___ SH081963 -16.6278 150.580 15 -1 -16.5000 150.500 1005 -16.6409 150.616 1 13 2 107
1962358S17151 1963 113 SP EA NOT_NAMED 1962-12-24 03:00:00 TS -16.6396 150.639 main 451 447 P_____P___P___ SH081963 -16.6424 150.640 15 -1 -16.5882 150.586 1004 -16.6596 150.665 1 13 4 108
1962358S17151 1963 113 SP EA NOT_NAMED 1962-12-24 05:00:00 TS -16.6880 150.800 1002 bom main 453 453 P_____O___O___ SH081963 -16.6776 150.800 15 -1 -16.7000 150.800 1002 -16.7000 150.800 1 14 5 104
1962358S17151 1963 113 SP EA NOT_NAMED 1962-12-24 06:00:00 TS -16.7041 150.907 main 459 459 O_____P__OP_O_ jtwc_sh SH081963 -16.7000 150.900 15 -1 -16.6967 150.946 1001 -16.7000 151.000 TC 25 1002 -16.7219 150.887 1 13 -16.7000 150.800 TC 25 1002 8 91
1962358S17151 1963 113 SP EA NOT_NAMED 1962-12-24 09:00:00 TS -16.6963 151.334 main 481 481 P_____P__PP_P_ SH081963 -16.7926 151.277 12 -1 -16.5521 151.475 1001 -16.5779 151.495 TC 27 1001 -16.7963 151.216 1 12 -16.5180 151.355 TC 25 1001 8 90
1962358S17151 1963 113 SP EA NOT_NAMED 1962-12-24 11:00:00 TS -16.7032 151.634 1001 bom main 499 499 P_____O__PP_P_ SH081963 -16.8641 151.562 10 -1 -16.5000 151.800 1001 -16.5676 151.781 TC 29 1001 -16.8556 151.475 1 12 -16.4775 151.671 TC 25 1001 8 94
1962358S17151 1963 113 SP EA NOT_NAMED 1962-12-24 12:00:00 TS -16.7243 151.770 main 512 508 O_____P__OP_O_ jtwc_sh SH081963 -16.9000 151.700 10 -1 -16.5568 151.907 1000 -16.6000 151.900 TC 30 1001 -16.8888 151.612 1 11 -16.5000 151.800 TC 25 1001 7 115
1962358S17151 1963 113 SP EA NOT_NAMED 1962-12-24 15:00:00 TS -16.9044 152.088 main 515 514 P_____P__PP_P_ SH081963 -16.9774 152.058 10 -1 -16.8642 152.145 1000 -16.8548 152.165 TC 30 1000 -17.0055 152.030 1 10 -16.7472 152.072 TC 27 1000 7 124
1962358S17151 1963 113 SP EA NOT_NAMED 1962-12-24 17:00:00 TS -17.0618 152.284 1000 bom main 513 513 P_____O__PO_P_ SH081963 -17.0495 152.286 10 -1 -17.1000 152.300 1000 -17.0872 152.316 TC 30 1000 -17.1000 152.300 1 10 -16.9846 152.218 TC 29 1000 7 130
1962358S17151 1963 113 SP EA NOT_NAMED 1962-12-24 18:00:00 TS -17.1423 152.387 main 521 513 O_____P__OP_O_ jtwc_sh SH081963 -17.1000 152.400 10 -1 -17.1943 152.408 999 -17.2000 152.400 TC 30 1000 -17.1593 152.414 1 11 -17.1000 152.300 TC 30 1000 8 128
1962358S17151 1963 113 SP EA NOT_NAMED 1962-12-24 21:00:00 TS -17.3923 152.734 main 523 523 P_____P__PP_P_ SH081963 -17.3425 152.757 15 -1 -17.4546 152.764 999 -17.4800 152.742 TC 30 999 -17.3618 152.743 1 14 -17.3725 152.642 TC 30 999 8 127
1962358S17151 1963 113 SP EA NOT_NAMED 1962-12-24 23:00:00 TS -17.5524 152.967 999 bom main 535 535 P_____O__PP_P_ SH081963 -17.5202 152.989 18 -1 -17.6000 153.000 999 -17.6364 152.984 TC 30 999 -17.5071 152.957 1 17 -17.5307 152.884 TC 30 999 8 125
1962358S17151 1963 113 SP EA NOT_NAMED 1962-12-25 00:00:00 TS -17.6239 153.077 main 543 537 O_____P__OP_O_ jtwc_sh SH081963 -17.6000 153.100 20 -1 -17.6640 153.101 999 -17.7000 153.100 TC 30 999 -17.5796 153.063 1 18 -17.6000 153.000 TC 30 999 7 121
1962358S17151 1963 113 SP EA NOT_NAMED 1962-12-25 03:00:00 TS -17.7904 153.376 main 558 558 P_____P__PP_P_ SH081963 -17.7724 153.400 22 -1 -17.8186 153.390 999 -17.8223 153.393 TC 30 999 -17.7845 153.383 1 21 -17.7723 153.293 TC 30 999 7 118
1962358S17151 1963 113 SP EA NOT_NAMED 1962-12-25 05:00:00 TS -17.8762 153.579 999 bom main 571 571 P_____O__PO_P_ SH081963 -17.8609 153.597 24 -1 -17.9000 153.600 999 -17.8744 153.591 TC 30 999 -17.9000 153.600 1 24 -17.8609 153.491 TC 30 999 6 112
1962358S17151 1963 113 SP EA NOT_NAMED 1962-12-25 06:00:00 TS -17.9143 153.691 main 580 580 O_____P__OP_O_ jtwc_sh SH081963 -17.9000 153.700 25 -1 -17.9417 153.727 998 -17.9000 153.700 TC 30 999 -17.9442 153.716 1 24 -17.9000 153.600 TC 30 999 7 108
1962358S17151 1963 113 SP EA NOT_NAMED 1962-12-25 09:00:00 TS -18.0249 154.066 main 606 603 P_____P__PP_P_ SH081963 -18.0150 154.043 25 -1 -18.0467 154.138 998 -18.0076 154.100 TC 32 998 -18.0503 154.070 1 24 -18.0151 154.000 TC 32 998 7 106
1962358S17151 1963 113 SP EA NOT_NAMED 1962-12-25 11:00:00 TS -18.0833 154.319 998 bom main 610 610 P_____O__PP_P_ SH081963 -18.0750 154.281 25 -1 -18.1000 154.400 998 -18.0724 154.373 TC 34 998 -18.1025 154.308 1 24 -18.0750 154.273 TC 34 998 7 103
1962358S17151 1963 113 SP EA NOT_NAMED 1962-12-25 12:00:00 TS -18.1077 154.440 main 616 616 O_____P__OP_O_ jtwc_sh SH081963 -18.1000 154.400 25 -1 -18.1223 154.511 998 -18.1000 154.500 TC 35 998 -18.1240 154.426 1 24 -18.1000 154.400 TC 35 998 7 100
1962358S17151 1963 113 SP EA NOT_NAMED 1962-12-25 15:00:00 TS -18.1627 154.772 main 635 635 P_____P__PP_P_ SH081963 -18.1575 154.758 25 -1 -18.1720 154.811 998 -18.1574 154.815 TC 35 998 -18.1745 154.776 1 24 -18.1574 154.715 TC 35 998 6 99
1962358S17151 1963 113 SP EA NOT_NAMED 1962-12-25 17:00:00 TS -18.1906 154.981 998 bom main 649 649 P_____O__PO_P_ SH081963 -18.1859 154.989 25 -1 -18.2000 155.000 998 -18.1859 155.005 TC 35 998 -18.2000 155.000 1 24 -18.1859 154.905 TC 35 998 6 98
1962358S17151 1963 113 SP EA NOT_NAMED 1962-12-25 18:00:00 TS -18.2059 155.084 main 656 656 O_____P__OP_O_ jtwc_sh SH081963 -18.2000 155.100 25 -1 -18.2193 155.100 997 -18.2000 155.100 TC 35 998 -18.2162 155.107 1 24 -18.2000 155.000 TC 35 998 6 100
1962358S17151 1963 113 SP EA NOT_NAMED 1962-12-25 21:00:00 TS -18.2598 155.388 main 670 670 P_____P__PP_P_ SH081963 -18.2574 155.407 25 -1 -18.2745 155.400 997 -18.2575 155.400 TC 35 997 -18.2543 155.416 1 24 -18.2575 155.300 TC 35 997 6 100
1962358S17151 1963 113 SP EA NOT_NAMED 1962-12-25 23:00:00 TS -18.2880 155.587 997 bom main 686 686 P_____O__PP_P_ SH081963 -18.2890 155.603 25 -1 -18.3000 155.600 997 -18.2890 155.600 TC 35 997 -18.2722 155.615 1 24 -18.2890 155.500 TC 35 997 6 98
1962358S17151 1963 113 SP EA NOT_NAMED 1962-12-26 00:00:00 TS -18.2975 155.686 main 693 693 O_____P__OP_O_ jtwc_sh SH081963 -18.3000 155.700 25 -1 -18.3057 155.700 996 -18.3000 155.700 TC 35 997 -18.2792 155.713 1 24 -18.3000 155.600 TC 35 997 6 93
1962358S17151 1963 113 SP EA NOT_NAMED 1962-12-26 03:00:00 TS -18.3049 155.984 main 716 716 P_____P__PP_P_ SH081963 -18.3075 156.000 25 -1 -18.3054 156.000 995 -18.3075 156.000 TC 37 996 -18.2941 156.005 1 24 -18.3075 155.900 TC 37 996 6 91
1962358S17151 1963 113 SP EA NOT_NAMED 1962-12-26 05:00:00 TS -18.3017 156.183 995 bom main 732 732 P_____O__PO_P_ SH081963 -18.3026 156.200 25 -1 -18.3000 156.200 995 -18.3026 156.200 TC 39 995 -18.3000 156.200 1 25 -18.3026 156.100 TC 39 995 6 89
1962358S17151 1963 113 SP EA NOT_NAMED 1962-12-26 06:00:00 TS -18.3005 156.282 main 740 740 O_____P__OP_O_ jtwc_sh SH081963 -18.3000 156.300 25 -1 -18.3000 156.300 995 -18.3000 156.300 TC 40 995 -18.3032 156.293 1 24 -18.3000 156.200 TC 40 995 6 90
1962358S17151 1963 113 SP EA NOT_NAMED 1962-12-26 09:00:00 TS -18.3012 156.577 main 765 765 P_____P__PP_P_ SH081963 -18.3000 156.600 25 -1 -18.3000 156.600 995 -18.2999 156.592 TC 40 995 -18.3073 156.568 1 24 -18.3000 156.500 TC 40 995 6 90
1962358S17151 1963 113 SP EA NOT_NAMED 1962-12-26 11:00:00 TS -18.3011 156.775 995 bom main 781 777 P_____O__PP_P_ SH081963 -18.3000 156.800 25 -1 -18.3000 156.800 995 -18.3000 156.794 TC 40 995 -18.3068 156.755 1 24 -18.3000 156.700 TC 40 995 6 90
1962358S17151 1963 113 SP EA NOT_NAMED 1962-12-26 12:00:00 TS -18.3010 156.874 main 777 757 O_____P__OP_O_ jtwc_sh SH081963 -18.3000 156.900 25 -1 -18.2999 156.892 995 -18.3000 156.900 TC 40 995 -18.3059 156.852 1 23 -18.3000 156.800 TC 40 995 6 90
1962358S17151 1963 113 SP EA NOT_NAMED 1962-12-26 15:00:00 TS -18.3003 157.166 main 747 727 P_____P__PP_P_ SH081963 -18.2998 157.178 25 -1 -18.2998 157.176 995 -18.3002 157.240 TC 40 995 -18.3022 157.166 1 23 -18.2998 157.078 TC 40 995 6 90
1962358S17151 1963 113 SP EA NOT_NAMED 1962-12-26 17:00:00 TS -18.3000 157.380 995 bom main 727 717 P_____O__PO_P_ SH081963 -18.2999 157.383 25 -1 -18.3000 157.400 995 -18.3001 157.479 TC 40 995 -18.3000 157.400 1 23 -18.2999 157.283 TC 40 995 6 90
1962358S17151 1963 113 SP EA NOT_NAMED 1962-12-26 18:00:00 TS -18.3005 157.495 main 717 678 O_____P__OP_O_ jtwc_sh SH081963 -18.3000 157.500 25 -1 -18.3001 157.530 995 -18.3000 157.600 TC 40 995 -18.3025 157.530 1 23 -18.3000 157.400 TC 40 995 8 90
1962358S17151 1963 113 SP EA NOT_NAMED 1962-12-26 21:00:00 TS -18.3025 157.916 main 678 648 P_____P___P_P_ SH081963 -18.3000 157.928 25 -1 -18.3003 157.976 995 TC -18.3110 157.952 1 24 -18.3000 157.828 TC 40 995 8 90
1962358S17151 1963 113 SP EA NOT_NAMED 1962-12-26 23:00:00 TS -18.3036 158.225 995 bom main 648 628 P_____O___P_P_ SH081963 -18.3000 158.242 25 -1 -18.3000 158.300 995 TC -18.3151 158.255 1 25 -18.3000 158.142 TC 40 995 9 90
1962358S17151 1963 113 SP EA NOT_NAMED 1962-12-27 00:00:00 TS -18.3040 158.378 main 628 589 O_________P_O_ jtwc_sh SH081963 -18.3000 158.400 25 -1 -18.3160 158.410 1 25 -18.3000 158.300 TC 40 995 9 90
1962358S17151 1963 113 SP EA NOT_NAMED 1962-12-27 03:00:00 TS -18.3065 158.835 main 589 560 P_________P_P_ SH081963 -18.3074 158.850 27 -1 -18.3114 158.884 1 27 -18.2999 158.758 TC 40 995 9 90
1962358S17151 1963 113 SP EA NOT_NAMED 1962-12-27 05:00:00 TS -18.3028 159.139 main 560 541 P_________O_P_ SH081963 -18.3057 159.150 29 -1 -18.3000 159.200 1 28 -18.3000 159.056 TC 40 995 9 89
1962358S17151 1963 113 SP EA NOT_NAMED 1962-12-27 06:00:00 TS -18.2975 159.287 main 541 503 O_________P_O_ jtwc_sh SH081963 -18.3000 159.300 30 -1 -18.2912 159.356 1 27 -18.3000 159.200 TC 40 995 8 87
1962358S17151 1963 113 SP EA NOT_NAMED 1962-12-27 09:00:00 TS -18.2786 159.722 main 503 466 P_________P_P_ SH081963 -18.2602 159.750 27 -1 -18.2534 159.815 1 25 -18.3223 159.600 TC 37 996 8 86
1962358S17151 1963 113 SP MM NOT_NAMED 1962-12-27 12:00:00 TS -18.2452 160.132 main 471 436 O_________P_O_ jtwc_sh SH081963 -18.2000 160.200 25 -1 -18.2023 160.264 1 22 -18.3000 160.000 TC 35 997 8 82
1962358S17151 1963 113 SP MM NOT_NAMED 1962-12-27 15:00:00 TS -18.1651 160.545 main 436 416 __________P_P_ SH081963 -1 -18.1424 160.707 1 20 -18.1803 160.438 TC 32 998 8 76
1962358S17151 1963 113 SP MM NOT_NAMED 1962-12-27 17:00:00 TS -18.0754 160.830 main 416 408 __________O_P_ SH081963 -1 -18.1000 161.000 1 19 -18.0632 160.745 TC 30 999 8 64
1962358S17151 1963 113 SP MM NOT_NAMED 1962-12-27 18:00:00 TS -18.0000 160.900 main 414 ____________O_ -1 1 -18.0000 160.900 TC 30 1000 6 44

デジタル台風データ・検索

IBTrACS Databaseについて

本データベースは、米国NOAAが公開する1842年以降の世界の熱帯低気圧のベストトラックデータアーカイブInternational Best Track Archive for Climate Stewardship (IBTrACS)を、ウェブで閲覧しやすい形式に変換したものです。

最終更新日:2021-10-08